createdAt,value
2019-02-06T00:00:56.628Z,82.20
2019-02-06T00:05:56.675Z,82.00
2019-02-06T00:10:56.518Z,82.00
2019-02-06T00:15:56.480Z,82.00
2019-02-06T00:20:56.199Z,81.90
2019-02-06T00:25:55.847Z,81.90
2019-02-06T00:30:55.511Z,82.10
2019-02-06T00:35:55.309Z,82.20
2019-02-06T00:40:55.023Z,82.20
2019-02-06T00:45:55.237Z,82.20
2019-02-06T00:50:55.226Z,82.00
2019-02-06T00:55:55.014Z,82.50
2019-02-06T01:00:55.039Z,82.30
2019-02-06T01:05:54.830Z,82.50
2019-02-06T01:10:54.583Z,82.50
2019-02-06T01:15:54.518Z,82.80
2019-02-06T01:20:54.190Z,82.70
2019-02-06T01:25:54.101Z,82.60
2019-02-06T01:31:00.540Z,82.90
2019-02-06T01:36:00.283Z,82.50
2019-02-06T01:40:59.995Z,82.50
2019-02-06T01:45:59.649Z,82.50
2019-02-06T01:50:59.819Z,82.90
2019-02-06T01:55:59.442Z,82.80
2019-02-06T02:00:59.412Z,82.90
2019-02-06T02:06:02.435Z,83.00
2019-02-06T02:11:00.491Z,82.90
2019-02-06T02:16:00.106Z,82.80
2019-02-06T02:20:59.823Z,83.00
2019-02-06T02:25:59.539Z,82.60
2019-02-06T02:30:59.603Z,82.80
2019-02-06T02:35:59.262Z,82.90
2019-02-06T02:40:58.956Z,83.00
2019-02-06T02:45:58.704Z,82.90
2019-02-06T02:50:58.362Z,82.80
2019-02-06T02:55:58.040Z,82.60
2019-02-06T03:01:11.011Z,82.70
2019-02-06T03:06:10.744Z,82.90
2019-02-06T03:11:10.436Z,83.70
2019-02-06T03:16:10.335Z,82.90
2019-02-06T03:21:10.209Z,82.70
2019-02-06T03:26:09.847Z,83.00
2019-02-06T03:31:09.519Z,82.90
2019-02-06T03:36:09.476Z,83.10
2019-02-06T03:41:09.256Z,82.70
2019-02-06T03:46:09.151Z,83.00
2019-02-06T03:51:08.775Z,82.60
2019-02-06T03:56:08.676Z,82.60
2019-02-06T04:01:11.316Z,82.50
2019-02-06T04:06:09.987Z,82.50
2019-02-06T04:11:09.716Z,82.50
2019-02-06T04:16:09.762Z,82.40
2019-02-06T04:21:09.768Z,82.40
2019-02-06T04:26:09.486Z,82.10
2019-02-06T04:31:09.215Z,82.10
2019-02-06T04:36:09.238Z,82.20
2019-02-06T04:41:08.883Z,82.00
2019-02-06T04:46:08.859Z,82.20
2019-02-06T04:51:08.858Z,82.20
2019-02-06T04:56:08.527Z,82.20
2019-02-06T05:01:08.482Z,82.10
2019-02-06T05:06:08.300Z,82.00
2019-02-06T05:11:08.044Z,81.90
2019-02-06T05:16:08.015Z,81.80
2019-02-06T05:21:07.657Z,81.80
2019-02-06T05:26:07.469Z,81.70
2019-02-06T05:31:07.107Z,82.10
2019-02-06T05:36:06.832Z,81.90
2019-02-06T05:41:07.456Z,81.90
2019-02-06T05:46:07.180Z,82.00
2019-02-06T05:51:07.006Z,81.80
2019-02-06T05:56:06.968Z,81.70
2019-02-06T06:01:07.066Z,82.10
2019-02-06T06:06:06.903Z,82.10
2019-02-06T06:11:06.716Z,82.10
2019-02-06T06:16:06.548Z,82.20
2019-02-06T06:21:06.445Z,82.20
2019-02-06T06:26:06.759Z,82.30
2019-02-06T06:31:06.398Z,82.20
2019-02-06T06:36:06.303Z,81.90
2019-02-06T06:41:06.038Z,81.80
2019-02-06T06:46:05.783Z,82.00
2019-02-06T06:51:05.502Z,82.10
2019-02-06T06:56:05.227Z,82.10
2019-02-06T07:01:05.044Z,82.00
2019-02-06T07:06:05.055Z,81.90
2019-02-06T07:11:04.811Z,82.10
2019-02-06T07:16:04.478Z,82.20
2019-02-06T07:21:04.431Z,81.80
2019-02-06T07:26:04.391Z,82.00
2019-02-06T07:31:04.182Z,82.10
2019-02-06T07:36:03.908Z,82.00
2019-02-06T07:41:03.621Z,82.10
2019-02-06T07:46:03.279Z,82.00
2019-02-06T07:51:02.981Z,81.90
2019-02-06T07:56:02.703Z,82.90
2019-02-06T08:01:03.737Z,82.20
2019-02-06T08:06:04.780Z,82.40
2019-02-06T08:11:04.577Z,82.30
2019-02-06T08:16:07.302Z,82.00
2019-02-06T08:21:06.227Z,82.20
2019-02-06T08:26:05.903Z,82.30
2019-02-06T08:31:05.619Z,81.90
2019-02-06T08:36:05.680Z,81.90
2019-02-06T08:41:05.373Z,82.00
2019-02-06T08:46:05.483Z,82.30
2019-02-06T08:51:05.542Z,82.40
2019-02-06T08:56:05.691Z,82.20
2019-02-06T09:01:05.796Z,81.90
2019-02-06T09:06:05.516Z,82.10
2019-02-06T09:11:05.327Z,81.80
2019-02-06T09:16:05.331Z,81.90
2019-02-06T09:21:05.062Z,81.80
2019-02-06T09:26:04.974Z,81.60
2019-02-06T09:31:04.859Z,82.00
2019-02-06T09:36:04.694Z,82.10
2019-02-06T09:41:04.507Z,82.20
2019-02-06T09:46:04.447Z,82.00
2019-02-06T09:51:04.239Z,81.90
2019-02-06T09:56:03.975Z,82.00
2019-02-06T10:01:03.690Z,82.00
2019-02-06T10:06:03.652Z,81.70
2019-02-06T10:11:03.385Z,81.60
2019-02-06T10:16:03.084Z,82.20
2019-02-06T10:21:02.730Z,82.50
2019-02-06T10:26:02.367Z,81.90
2019-02-06T10:31:02.165Z,81.60
2019-02-06T10:36:01.814Z,81.60
2019-02-06T10:41:04.504Z,80.90
2019-02-06T10:46:02.949Z,80.90
2019-02-06T10:51:02.727Z,81.10
2019-02-06T10:56:02.375Z,81.40
2019-02-06T11:01:03.195Z,81.00
2019-02-06T11:06:02.916Z,81.30
2019-02-06T11:11:02.815Z,81.30
2019-02-06T11:16:02.538Z,80.80
2019-02-06T11:21:02.191Z,81.10
2019-02-06T11:26:03.084Z,80.90
2019-02-06T11:31:03.068Z,80.60
2019-02-06T11:36:02.807Z,80.30
2019-02-06T11:41:02.812Z,79.80
2019-02-06T11:46:02.446Z,80.30
2019-02-06T11:51:02.859Z,79.20
2019-02-06T11:56:03.142Z,78.60
2019-02-06T12:01:28.019Z,78.40
2019-02-06T12:06:27.842Z,78.10
2019-02-06T12:11:27.746Z,78.20
2019-02-06T12:16:27.426Z,77.50
2019-02-06T12:21:27.527Z,76.90
2019-02-06T12:26:27.353Z,77.30
2019-02-06T12:31:27.055Z,77.10
2019-02-06T12:36:26.815Z,76.40
2019-02-06T12:41:26.788Z,75.90
2019-02-06T12:46:26.463Z,75.50
2019-02-06T12:51:26.173Z,76.30
2019-02-06T12:56:26.219Z,75.20
2019-02-06T13:01:25.875Z,75.50
2019-02-06T13:06:25.526Z,75.80
2019-02-06T13:11:25.487Z,76.40
2019-02-06T13:16:25.375Z,76.80
2019-02-06T13:21:25.363Z,77.20
2019-02-06T13:26:25.261Z,77.50
2019-02-06T13:31:24.987Z,77.50
2019-02-06T13:36:24.895Z,77.70
2019-02-06T13:41:24.568Z,77.90
2019-02-06T13:46:24.295Z,78.40
2019-02-06T13:51:24.219Z,78.50
2019-02-06T13:56:23.868Z,78.70
2019-02-06T14:01:25.630Z,78.80
2019-02-06T14:06:25.523Z,78.90
2019-02-06T14:11:26.213Z,79.10
2019-02-06T14:16:27.096Z,79.10
2019-02-06T14:21:27.455Z,79.10
2019-02-06T14:26:42.247Z,79.40
2019-02-06T14:32:15.672Z,79.60
2019-02-06T14:37:53.514Z,79.80
2019-02-06T14:43:33.413Z,79.90
2019-02-06T14:49:13.439Z,80.00
2019-02-06T14:54:45.106Z,80.10
2019-02-06T15:00:15.067Z,81.10
2019-02-06T15:06:00.791Z,80.40
2019-02-06T15:11:43.495Z,80.40
2019-02-06T15:17:38.547Z,80.50
2019-02-06T15:23:36.588Z,80.50
2019-02-06T15:29:14.256Z,80.60
2019-02-06T15:34:52.734Z,80.50
2019-02-06T15:40:28.735Z,80.50
2019-02-06T15:46:11.522Z,80.60
2019-02-06T15:51:44.577Z,80.50
2019-02-06T15:57:22.897Z,80.50
2019-02-06T16:02:36.504Z,80.50
2019-02-06T16:08:05.890Z,80.50
2019-02-06T16:13:40.135Z,80.40
2019-02-06T16:19:04.399Z,80.60
2019-02-06T16:24:35.035Z,80.80
2019-02-06T16:30:30.827Z,81.00
2019-02-06T16:36:05.731Z,81.00
2019-02-06T16:41:28.383Z,81.00
2019-02-06T16:47:05.471Z,81.00
2019-02-06T16:52:38.145Z,81.20
2019-02-06T16:57:59.435Z,81.30
2019-02-06T17:03:15.339Z,81.20
2019-02-06T17:08:53.534Z,81.50
2019-02-06T17:14:21.896Z,81.60
2019-02-06T17:20:13.448Z,81.70
2019-02-06T17:25:38.032Z,81.70
2019-02-06T17:30:56.359Z,81.70
2019-02-06T17:36:13.850Z,81.90
2019-02-06T17:41:35.916Z,81.90
2019-02-06T17:47:28.994Z,82.00
2019-02-06T17:53:11.736Z,81.90
2019-02-06T17:58:12.497Z,82.10
2019-02-06T18:03:13.460Z,82.20
2019-02-06T18:08:13.203Z,82.20
2019-02-06T18:13:13.941Z,82.30
2019-02-06T18:18:13.675Z,82.30
2019-02-06T18:23:13.646Z,82.30
2019-02-06T18:28:13.459Z,82.30
2019-02-06T18:33:14.448Z,82.60
2019-02-06T18:38:14.386Z,82.70
2019-02-06T18:43:14.446Z,82.70
2019-02-06T18:48:14.266Z,82.70
2019-02-06T18:53:14.410Z,82.70
2019-02-06T18:58:14.263Z,83.00
2019-02-06T19:03:23.467Z,83.00
2019-02-06T19:08:23.377Z,83.00
2019-02-06T19:13:23.411Z,83.90
2019-02-06T19:18:23.415Z,83.30
2019-02-06T19:23:23.238Z,83.30
2019-02-06T19:28:23.303Z,83.60
2019-02-06T19:33:23.163Z,83.70
2019-02-06T19:38:22.987Z,83.60
2019-02-06T19:43:22.656Z,83.60
2019-02-06T19:48:22.539Z,83.80
2019-02-06T19:53:22.309Z,83.80
2019-02-06T19:58:22.988Z,83.90
2019-02-06T20:03:22.735Z,84.00
2019-02-06T20:08:22.363Z,84.10
2019-02-06T20:13:22.251Z,84.10
2019-02-06T20:18:22.272Z,84.30
2019-02-06T20:23:22.079Z,84.30
2019-02-06T20:28:21.734Z,84.60
2019-02-06T20:33:21.455Z,84.50
2019-02-06T20:38:21.205Z,84.40
2019-02-06T20:43:22.405Z,84.50
2019-02-06T20:48:23.338Z,84.40
2019-02-06T20:53:23.077Z,84.50
2019-02-06T20:58:22.719Z,84.70
2019-02-06T21:03:22.379Z,84.90
2019-02-06T21:08:22.299Z,84.80
2019-02-06T21:13:32.490Z,84.60
2019-02-06T21:18:23.471Z,84.70
2019-02-06T21:23:23.291Z,84.80
2019-02-06T21:28:23.031Z,84.80
2019-02-06T21:33:23.671Z,84.90
2019-02-06T21:38:23.405Z,84.80
2019-02-06T21:43:23.156Z,84.60
2019-02-06T21:48:22.958Z,84.80
2019-02-06T21:53:22.771Z,84.90
2019-02-06T21:58:23.748Z,84.80
2019-02-06T22:03:23.571Z,84.80
2019-02-06T22:08:23.584Z,85.00
2019-02-06T22:13:23.553Z,84.90
2019-02-06T22:18:24.710Z,84.90
2019-02-06T22:23:24.391Z,84.90
2019-02-06T22:28:24.842Z,85.00
2019-02-06T22:33:24.687Z,84.90
2019-02-06T22:38:24.443Z,85.00
2019-02-06T22:43:25.463Z,84.80
2019-02-06T22:48:25.135Z,84.70
2019-02-06T22:53:24.775Z,84.70
2019-02-06T22:58:24.507Z,84.40
2019-02-06T23:03:36.348Z,84.30
2019-02-06T23:08:36.406Z,84.30
2019-02-06T23:13:36.376Z,84.20
2019-02-06T23:18:36.103Z,84.30
2019-02-06T23:23:35.767Z,84.40
2019-02-06T23:28:36.419Z,84.20
2019-02-06T23:33:36.127Z,84.20
2019-02-06T23:38:36.022Z,84.30
2019-02-06T23:43:35.752Z,84.30
2019-02-06T23:48:35.521Z,84.30
2019-02-06T23:53:35.236Z,84.40
2019-02-06T23:58:34.971Z,84.20
